sensor_id;sensor_type;location;lat;lon;timestamp;temperature;humidity
29731;DHT22;16639;51.488;0.152;2023-08-08T00:00:23;16.10;99.90
29731;DHT22;16639;51.488;0.152;2023-08-08T00:02:50;16.00;99.90
29731;DHT22;16639;51.488;0.152;2023-08-08T00:05:18;16.30;99.90
29731;DHT22;16639;51.488;0.152;2023-08-08T00:07:45;16.00;99.90
29731;DHT22;16639;51.488;0.152;2023-08-08T00:10:12;15.90;99.90
29731;DHT22;16639;51.488;0.152;2023-08-08T00:12:40;16.00;99.90
29731;DHT22;16639;51.488;0.152;2023-08-08T00:15:07;15.90;99.90
29731;DHT22;16639;51.488;0.152;2023-08-08T00:17:36;15.90;99.90
29731;DHT22;16639;51.488;0.152;2023-08-08T00:20:04;15.80;99.90
29731;DHT22;16639;51.488;0.152;2023-08-08T00:22:31;15.80;99.90
29731;DHT22;16639;51.488;0.152;2023-08-08T00:24:59;15.80;99.90
29731;DHT22;16639;51.488;0.152;2023-08-08T00:27:26;15.80;99.90
29731;DHT22;16639;51.488;0.152;2023-08-08T00:29:54;15.70;99.90
29731;DHT22;16639;51.488;0.152;2023-08-08T00:32:21;15.70;99.90
29731;DHT22;16639;51.488;0.152;2023-08-08T00:34:49;15.70;99.90
29731;DHT22;16639;51.488;0.152;2023-08-08T00:37:16;15.70;99.90
29731;DHT22;16639;51.488;0.152;2023-08-08T00:39:44;15.70;99.90
29731;DHT22;16639;51.488;0.152;2023-08-08T00:42:13;15.60;99.90
29731;DHT22;16639;51.488;0.152;2023-08-08T00:44:40;15.70;99.90
29731;DHT22;16639;51.488;0.152;2023-08-08T00:47:08;15.60;99.90
29731;DHT22;16639;51.488;0.152;2023-08-08T00:49:37;15.60;99.90
29731;DHT22;16639;51.488;0.152;2023-08-08T00:52:06;15.60;99.90
29731;DHT22;16639;51.488;0.152;2023-08-08T00:54:34;15.60;99.90
29731;DHT22;16639;51.488;0.152;2023-08-08T00:57:01;15.60;99.90
29731;DHT22;16639;51.488;0.152;2023-08-08T00:59:29;15.60;99.90
29731;DHT22;16639;51.488;0.152;2023-08-08T01:01:57;15.60;99.90
29731;DHT22;16639;51.488;0.152;2023-08-08T01:04:26;15.50;99.90
29731;DHT22;16639;51.488;0.152;2023-08-08T01:07:25;15.50;99.90
29731;DHT22;16639;51.488;0.152;2023-08-08T01:09:59;15.50;99.90
29731;DHT22;16639;51.488;0.152;2023-08-08T01:12:31;15.50;99.90
29731;DHT22;16639;51.488;0.152;2023-08-08T01:14:59;15.50;99.90
29731;DHT22;16639;51.488;0.152;2023-08-08T01:17:28;15.50;99.90
29731;DHT22;16639;51.488;0.152;2023-08-08T01:19:55;15.50;99.90
29731;DHT22;16639;51.488;0.152;2023-08-08T01:22:27;15.50;99.90
29731;DHT22;16639;51.488;0.152;2023-08-08T01:24:57;15.40;99.90
29731;DHT22;16639;51.488;0.152;2023-08-08T01:27:25;15.40;99.90
29731;DHT22;16639;51.488;0.152;2023-08-08T01:29:53;15.40;99.90
29731;DHT22;16639;51.488;0.152;2023-08-08T01:32:20;15.40;99.90
29731;DHT22;16639;51.488;0.152;2023-08-08T01:34:51;15.30;99.90
29731;DHT22;16639;51.488;0.152;2023-08-08T01:37:23;15.30;99.90
29731;DHT22;16639;51.488;0.152;2023-08-08T01:39:52;15.30;99.90
29731;DHT22;16639;51.488;0.152;2023-08-08T01:42:22;15.20;99.90
29731;DHT22;16639;51.488;0.152;2023-08-08T01:44:52;15.20;99.90
29731;DHT22;16639;51.488;0.152;2023-08-08T01:47:21;15.20;99.90
29731;DHT22;16639;51.488;0.152;2023-08-08T01:49:48;15.20;99.90
29731;DHT22;16639;51.488;0.152;2023-08-08T01:52:16;15.20;99.90
29731;DHT22;16639;51.488;0.152;2023-08-08T01:54:43;15.20;99.90
29731;DHT22;16639;51.488;0.152;2023-08-08T01:57:11;15.10;99.90
29731;DHT22;16639;51.488;0.152;2023-08-08T01:59:39;15.10;99.90
29731;DHT22;16639;51.488;0.152;2023-08-08T02:02:06;15.10;99.90
29731;DHT22;16639;51.488;0.152;2023-08-08T02:04:33;15.10;99.90
29731;DHT22;16639;51.488;0.152;2023-08-08T02:07:01;15.10;99.90
29731;DHT22;16639;51.488;0.152;2023-08-08T02:09:28;15.00;99.90
29731;DHT22;16639;51.488;0.152;2023-08-08T02:11:56;15.00;99.90
29731;DHT22;16639;51.488;0.152;2023-08-08T02:14:24;15.00;99.90
29731;DHT22;16639;51.488;0.152;2023-08-08T02:16:54;13.70;99.90
29731;DHT22;16639;51.488;0.152;2023-08-08T02:19:21;14.90;99.90
29731;DHT22;16639;51.488;0.152;2023-08-08T02:21:49;14.90;99.90
29731;DHT22;16639;51.488;0.152;2023-08-08T02:24:16;14.90;99.90
29731;DHT22;16639;51.488;0.152;2023-08-08T02:26:44;14.90;99.90
29731;DHT22;16639;51.488;0.152;2023-08-08T02:29:11;14.90;99.90
29731;DHT22;16639;51.488;0.152;2023-08-08T02:31:38;14.90;99.90
29731;DHT22;16639;51.488;0.152;2023-08-08T02:34:06;14.90;99.90
29731;DHT22;16639;51.488;0.152;2023-08-08T02:36:33;14.90;99.90
29731;DHT22;16639;51.488;0.152;2023-08-08T02:39:01;14.90;99.90
29731;DHT22;16639;51.488;0.152;2023-08-08T02:41:28;14.80;99.90
29731;DHT22;16639;51.488;0.152;2023-08-08T02:43:56;14.80;99.90
29731;DHT22;16639;51.488;0.152;2023-08-08T02:46:24;14.80;99.90
29731;DHT22;16639;51.488;0.152;2023-08-08T02:48:51;14.80;99.90
29731;DHT22;16639;51.488;0.152;2023-08-08T02:51:19;14.80;99.90
29731;DHT22;16639;51.488;0.152;2023-08-08T02:53:46;14.70;99.90
29731;DHT22;16639;51.488;0.152;2023-08-08T02:56:14;14.70;99.90
29731;DHT22;16639;51.488;0.152;2023-08-08T02:58:41;14.70;99.90
29731;DHT22;16639;51.488;0.152;2023-08-08T03:01:08;14.60;99.90
29731;DHT22;16639;51.488;0.152;2023-08-08T03:03:36;14.80;99.90
29731;DHT22;16639;51.488;0.152;2023-08-08T03:06:03;14.60;99.90
29731;DHT22;16639;51.488;0.152;2023-08-08T03:08:31;14.50;99.90
29731;DHT22;16639;51.488;0.152;2023-08-08T03:10:58;14.60;99.90
29731;DHT22;16639;51.488;0.152;2023-08-08T03:13:26;14.50;99.90
29731;DHT22;16639;51.488;0.152;2023-08-08T03:15:53;14.60;99.90
29731;DHT22;16639;51.488;0.152;2023-08-08T03:18:21;14.60;99.90
29731;DHT22;16639;51.488;0.152;2023-08-08T03:20:50;14.60;99.90
29731;DHT22;16639;51.488;0.152;2023-08-08T03:23:17;14.60;99.90
29731;DHT22;16639;51.488;0.152;2023-08-08T03:25:45;14.60;99.90
29731;DHT22;16639;51.488;0.152;2023-08-08T03:28:12;14.60;99.90
29731;DHT22;16639;51.488;0.152;2023-08-08T03:30:40;14.60;99.90
29731;DHT22;16639;51.488;0.152;2023-08-08T03:33:07;14.60;99.90
29731;DHT22;16639;51.488;0.152;2023-08-08T03:35:34;14.60;99.90
29731;DHT22;16639;51.488;0.152;2023-08-08T03:38:02;14.60;99.90
29731;DHT22;16639;51.488;0.152;2023-08-08T03:40:30;15.00;99.90
29731;DHT22;16639;51.488;0.152;2023-08-08T03:42:57;14.70;99.90
29731;DHT22;16639;51.488;0.152;2023-08-08T03:45:25;14.70;99.90
29731;DHT22;16639;51.488;0.152;2023-08-08T03:47:52;14.70;99.90
29731;DHT22;16639;51.488;0.152;2023-08-08T03:50:20;14.70;99.90
29731;DHT22;16639;51.488;0.152;2023-08-08T03:52:48;14.50;99.90
29731;DHT22;16639;51.488;0.152;2023-08-08T03:55:16;14.70;99.90
29731;DHT22;16639;51.488;0.152;2023-08-08T03:57:43;14.70;99.90
29731;DHT22;16639;51.488;0.152;2023-08-08T04:00:11;14.70;99.90
29731;DHT22;16639;51.488;0.152;2023-08-08T04:02:39;14.70;99.90
29731;DHT22;16639;51.488;0.152;2023-08-08T04:05:07;14.70;99.90
29731;DHT22;16639;51.488;0.152;2023-08-08T04:07:35;14.80;99.90
29731;DHT22;16639;51.488;0.152;2023-08-08T04:10:03;14.50;99.90
29731;DHT22;16639;51.488;0.152;2023-08-08T04:12:30;14.80;99.90
29731;DHT22;16639;51.488;0.152;2023-08-08T04:15:00;15.00;99.90
29731;DHT22;16639;51.488;0.152;2023-08-08T04:17:27;14.70;99.90
29731;DHT22;16639;51.488;0.152;2023-08-08T04:19:55;14.70;99.90
29731;DHT22;16639;51.488;0.152;2023-08-08T04:22:22;14.70;99.90
29731;DHT22;16639;51.488;0.152;2023-08-08T04:24:50;14.80;99.90
29731;DHT22;16639;51.488;0.152;2023-08-08T04:27:17;14.70;99.90
29731;DHT22;16639;51.488;0.152;2023-08-08T04:29:47;14.80;99.90
29731;DHT22;16639;51.488;0.152;2023-08-08T04:32:15;14.80;99.90
29731;DHT22;16639;51.488;0.152;2023-08-08T04:34:43;14.80;99.90
29731;DHT22;16639;51.488;0.152;2023-08-08T04:37:10;14.80;99.90
29731;DHT22;16639;51.488;0.152;2023-08-08T04:39:38;14.80;99.90
29731;DHT22;16639;51.488;0.152;2023-08-08T04:42:05;14.80;99.90
29731;DHT22;16639;51.488;0.152;2023-08-08T04:44:33;14.80;99.90
29731;DHT22;16639;51.488;0.152;2023-08-08T04:47:00;14.80;99.90
29731;DHT22;16639;51.488;0.152;2023-08-08T04:49:28;14.80;99.90
29731;DHT22;16639;51.488;0.152;2023-08-08T04:51:56;14.80;99.90
29731;DHT22;16639;51.488;0.152;2023-08-08T04:54:24;14.80;99.90
29731;DHT22;16639;51.488;0.152;2023-08-08T04:56:52;14.80;99.90
29731;DHT22;16639;51.488;0.152;2023-08-08T04:59:20;14.80;99.90
29731;DHT22;16639;51.488;0.152;2023-08-08T05:01:47;14.80;99.90
29731;DHT22;16639;51.488;0.152;2023-08-08T05:04:17;14.80;99.90
29731;DHT22;16639;51.488;0.152;2023-08-08T05:06:44;14.70;99.90
29731;DHT22;16639;51.488;0.152;2023-08-08T05:09:13;14.80;99.90
29731;DHT22;16639;51.488;0.152;2023-08-08T05:11:40;14.70;99.90
29731;DHT22;16639;51.488;0.152;2023-08-08T05:14:08;15.00;99.90
29731;DHT22;16639;51.488;0.152;2023-08-08T05:16:35;14.70;99.90
29731;DHT22;16639;51.488;0.152;2023-08-08T05:19:03;14.70;99.90
29731;DHT22;16639;51.488;0.152;2023-08-08T05:21:30;14.70;99.90
29731;DHT22;16639;51.488;0.152;2023-08-08T05:24:00;14.70;99.90
29731;DHT22;16639;51.488;0.152;2023-08-08T05:26:28;14.60;99.90
29731;DHT22;16639;51.488;0.152;2023-08-08T05:28:56;14.60;99.90
29731;DHT22;16639;51.488;0.152;2023-08-08T05:31:23;14.60;99.90
29731;DHT22;16639;51.488;0.152;2023-08-08T05:33:51;14.60;99.90
29731;DHT22;16639;51.488;0.152;2023-08-08T05:36:19;14.50;99.90
29731;DHT22;16639;51.488;0.152;2023-08-08T05:38:46;14.60;99.90
29731;DHT22;16639;51.488;0.152;2023-08-08T05:41:13;14.60;99.90
29731;DHT22;16639;51.488;0.152;2023-08-08T05:43:41;14.50;99.90
29731;DHT22;16639;51.488;0.152;2023-08-08T05:46:10;14.60;99.90
29731;DHT22;16639;51.488;0.152;2023-08-08T05:48:37;14.60;99.90
29731;DHT22;16639;51.488;0.152;2023-08-08T05:51:07;14.60;99.90
29731;DHT22;16639;51.488;0.152;2023-08-08T05:53:35;14.70;99.90
29731;DHT22;16639;51.488;0.152;2023-08-08T05:56:02;14.70;99.90
29731;DHT22;16639;51.488;0.152;2023-08-08T05:58:30;14.60;99.90
29731;DHT22;16639;51.488;0.152;2023-08-08T06:00:58;14.60;99.90
29731;DHT22;16639;51.488;0.152;2023-08-08T06:03:25;14.70;99.90
29731;DHT22;16639;51.488;0.152;2023-08-08T06:05:52;14.70;99.90
29731;DHT22;16639;51.488;0.152;2023-08-08T06:08:20;14.70;99.90
29731;DHT22;16639;51.488;0.152;2023-08-08T06:10:48;14.80;99.90
29731;DHT22;16639;51.488;0.152;2023-08-08T06:13:15;14.80;99.90
29731;DHT22;16639;51.488;0.152;2023-08-08T06:15:43;14.80;99.90
29731;DHT22;16639;51.488;0.152;2023-08-08T06:18:10;14.90;99.90
29731;DHT22;16639;51.488;0.152;2023-08-08T06:20:38;14.90;99.90
29731;DHT22;16639;51.488;0.152;2023-08-08T06:23:05;14.90;99.90
29731;DHT22;16639;51.488;0.152;2023-08-08T06:25:33;14.90;99.90
29731;DHT22;16639;51.488;0.152;2023-08-08T06:28:00;14.90;99.90
29731;DHT22;16639;51.488;0.152;2023-08-08T06:30:28;14.90;99.90
29731;DHT22;16639;51.488;0.152;2023-08-08T06:32:55;15.00;99.90
29731;DHT22;16639;51.488;0.152;2023-08-08T06:35:23;15.00;99.90
29731;DHT22;16639;51.488;0.152;2023-08-08T06:37:50;15.00;99.90
29731;DHT22;16639;51.488;0.152;2023-08-08T06:40:18;15.00;99.90
29731;DHT22;16639;51.488;0.152;2023-08-08T06:42:45;15.00;99.90
29731;DHT22;16639;51.488;0.152;2023-08-08T06:45:13;15.00;99.90
29731;DHT22;16639;51.488;0.152;2023-08-08T06:47:41;15.10;99.90
29731;DHT22;16639;51.488;0.152;2023-08-08T06:50:09;15.20;99.90
29731;DHT22;16639;51.488;0.152;2023-08-08T06:52:36;15.20;99.90
29731;DHT22;16639;51.488;0.152;2023-08-08T06:55:04;15.20;99.90
29731;DHT22;16639;51.488;0.152;2023-08-08T06:57:33;15.20;99.90
29731;DHT22;16639;51.488;0.152;2023-08-08T07:00:00;15.20;99.90
29731;DHT22;16639;51.488;0.152;2023-08-08T07:02:28;15.20;99.90
29731;DHT22;16639;51.488;0.152;2023-08-08T07:04:55;15.30;99.90
29731;DHT22;16639;51.488;0.152;2023-08-08T07:07:23;15.50;99.90
29731;DHT22;16639;51.488;0.152;2023-08-08T07:09:50;15.70;99.90
29731;DHT22;16639;51.488;0.152;2023-08-08T07:12:18;15.50;99.90
29731;DHT22;16639;51.488;0.152;2023-08-08T07:14:45;15.50;99.90
29731;DHT22;16639;51.488;0.152;2023-08-08T07:17:12;15.50;99.90
29731;DHT22;16639;51.488;0.152;2023-08-08T07:19:40;15.60;99.90
29731;DHT22;16639;51.488;0.152;2023-08-08T07:22:08;15.70;99.90
29731;DHT22;16639;51.488;0.152;2023-08-08T07:24:35;15.80;99.90
29731;DHT22;16639;51.488;0.152;2023-08-08T07:27:03;15.80;99.90
29731;DHT22;16639;51.488;0.152;2023-08-08T07:29:30;15.80;99.90
29731;DHT22;16639;51.488;0.152;2023-08-08T07:31:58;15.80;99.90
29731;DHT22;16639;51.488;0.152;2023-08-08T07:34:26;15.80;99.90
29731;DHT22;16639;51.488;0.152;2023-08-08T07:36:53;15.80;99.90
29731;DHT22;16639;51.488;0.152;2023-08-08T07:39:21;15.90;99.90
29731;DHT22;16639;51.488;0.152;2023-08-08T07:41:49;16.00;99.90
29731;DHT22;16639;51.488;0.152;2023-08-08T07:44:16;16.00;99.90
29731;DHT22;16639;51.488;0.152;2023-08-08T07:46:44;16.00;99.90
29731;DHT22;16639;51.488;0.152;2023-08-08T07:49:11;16.10;99.90
29731;DHT22;16639;51.488;0.152;2023-08-08T07:51:39;16.10;99.90
29731;DHT22;16639;51.488;0.152;2023-08-08T07:54:06;16.20;99.90
29731;DHT22;16639;51.488;0.152;2023-08-08T07:56:36;16.30;99.90
29731;DHT22;16639;51.488;0.152;2023-08-08T07:59:03;16.30;99.90
29731;DHT22;16639;51.488;0.152;2023-08-08T08:01:31;15.80;99.90
29731;DHT22;16639;51.488;0.152;2023-08-08T08:03:58;16.30;99.90
29731;DHT22;16639;51.488;0.152;2023-08-08T08:06:26;16.30;99.90
29731;DHT22;16639;51.488;0.152;2023-08-08T08:08:54;16.80;99.90
29731;DHT22;16639;51.488;0.152;2023-08-08T08:11:21;16.40;99.90
29731;DHT22;16639;51.488;0.152;2023-08-08T08:13:49;16.40;99.90
29731;DHT22;16639;51.488;0.152;2023-08-08T08:16:16;16.50;99.90
29731;DHT22;16639;51.488;0.152;2023-08-08T08:18:46;16.50;99.90
29731;DHT22;16639;51.488;0.152;2023-08-08T08:21:15;16.50;99.90
29731;DHT22;16639;51.488;0.152;2023-08-08T08:23:46;16.50;99.90
29731;DHT22;16639;51.488;0.152;2023-08-08T08:26:13;16.50;99.90
29731;DHT22;16639;51.488;0.152;2023-08-08T08:28:41;16.60;99.90
29731;DHT22;16639;51.488;0.152;2023-08-08T08:31:08;16.60;99.90
29731;DHT22;16639;51.488;0.152;2023-08-08T08:33:36;16.60;99.90
29731;DHT22;16639;51.488;0.152;2023-08-08T08:36:03;16.70;99.90
29731;DHT22;16639;51.488;0.152;2023-08-08T08:38:31;16.70;99.90
29731;DHT22;16639;51.488;0.152;2023-08-08T08:40:59;16.70;99.90
29731;DHT22;16639;51.488;0.152;2023-08-08T08:43:26;16.70;99.90
29731;DHT22;16639;51.488;0.152;2023-08-08T08:45:55;16.70;99.90
29731;DHT22;16639;51.488;0.152;2023-08-08T08:48:24;16.70;99.90
29731;DHT22;16639;51.488;0.152;2023-08-08T08:50:52;16.70;99.90
29731;DHT22;16639;51.488;0.152;2023-08-08T08:53:20;16.70;99.90
29731;DHT22;16639;51.488;0.152;2023-08-08T08:55:50;16.70;99.90
29731;DHT22;16639;51.488;0.152;2023-08-08T08:58:18;16.70;99.90
29731;DHT22;16639;51.488;0.152;2023-08-08T09:00:47;16.80;99.90
29731;DHT22;16639;51.488;0.152;2023-08-08T09:03:16;16.80;99.90
29731;DHT22;16639;51.488;0.152;2023-08-08T09:05:44;16.40;99.90
29731;DHT22;16639;51.488;0.152;2023-08-08T09:08:12;16.90;99.90
29731;DHT22;16639;51.488;0.152;2023-08-08T09:10:40;17.00;99.90
29731;DHT22;16639;51.488;0.152;2023-08-08T09:13:08;17.00;99.90
29731;DHT22;16639;51.488;0.152;2023-08-08T09:15:35;17.00;99.90
29731;DHT22;16639;51.488;0.152;2023-08-08T09:18:03;17.00;99.90
29731;DHT22;16639;51.488;0.152;2023-08-08T09:20:31;17.10;99.90
29731;DHT22;16639;51.488;0.152;2023-08-08T09:22:58;17.10;99.90
29731;DHT22;16639;51.488;0.152;2023-08-08T09:25:26;17.00;99.90
29731;DHT22;16639;51.488;0.152;2023-08-08T09:27:54;17.00;99.90
29731;DHT22;16639;51.488;0.152;2023-08-08T09:30:22;17.00;99.90
29731;DHT22;16639;51.488;0.152;2023-08-08T09:32:49;16.90;99.90
29731;DHT22;16639;51.488;0.152;2023-08-08T09:35:17;16.90;99.90
29731;DHT22;16639;51.488;0.152;2023-08-08T09:37:46;16.90;99.90
29731;DHT22;16639;51.488;0.152;2023-08-08T09:40:14;16.90;99.90
29731;DHT22;16639;51.488;0.152;2023-08-08T09:42:42;16.90;99.90
29731;DHT22;16639;51.488;0.152;2023-08-08T09:45:10;16.90;99.90
29731;DHT22;16639;51.488;0.152;2023-08-08T09:47:38;16.90;99.90
29731;DHT22;16639;51.488;0.152;2023-08-08T09:50:06;16.90;99.90
29731;DHT22;16639;51.488;0.152;2023-08-08T09:52:35;16.90;99.90
29731;DHT22;16639;51.488;0.152;2023-08-08T09:55:08;17.00;99.90
29731;DHT22;16639;51.488;0.152;2023-08-08T09:57:39;16.60;99.90
29731;DHT22;16639;51.488;0.152;2023-08-08T10:00:08;16.90;99.90
29731;DHT22;16639;51.488;0.152;2023-08-08T10:02:44;16.90;99.90
29731;DHT22;16639;51.488;0.152;2023-08-08T10:05:14;16.90;99.90
29731;DHT22;16639;51.488;0.152;2023-08-08T10:07:42;17.00;99.90
29731;DHT22;16639;51.488;0.152;2023-08-08T10:10:12;17.10;99.90
29731;DHT22;16639;51.488;0.152;2023-08-08T10:12:41;17.10;99.90
29731;DHT22;16639;51.488;0.152;2023-08-08T10:15:10;17.20;99.90
29731;DHT22;16639;51.488;0.152;2023-08-08T10:17:38;17.20;99.90
29731;DHT22;16639;51.488;0.152;2023-08-08T10:20:08;17.20;99.90
29731;DHT22;16639;51.488;0.152;2023-08-08T10:22:43;17.20;99.90
29731;DHT22;16639;51.488;0.152;2023-08-08T10:25:25;17.30;99.90
29731;DHT22;16639;51.488;0.152;2023-08-08T10:28:11;17.30;99.90
29731;DHT22;16639;51.488;0.152;2023-08-08T10:30:55;17.30;99.90
29731;DHT22;16639;51.488;0.152;2023-08-08T10:35:59;17.40;99.90
29731;DHT22;16639;51.488;0.152;2023-08-08T10:38:50;17.50;99.90
29731;DHT22;16639;51.488;0.152;2023-08-08T10:41:21;17.40;99.90
29731;DHT22;16639;51.488;0.152;2023-08-08T10:43:51;17.40;99.90
29731;DHT22;16639;51.488;0.152;2023-08-08T10:46:32;17.30;99.90
29731;DHT22;16639;51.488;0.152;2023-08-08T10:49:01;17.30;99.90
29731;DHT22;16639;51.488;0.152;2023-08-08T10:51:40;17.20;99.90
29731;DHT22;16639;51.488;0.152;2023-08-08T10:56:52;17.30;99.90
29731;DHT22;16639;51.488;0.152;2023-08-08T11:01:52;17.20;99.90
29731;DHT22;16639;51.488;0.152;2023-08-08T11:04:22;17.20;99.90
29731;DHT22;16639;51.488;0.152;2023-08-08T11:06:56;17.10;99.90
29731;DHT22;16639;51.488;0.152;2023-08-08T11:09:23;16.90;99.90
29731;DHT22;16639;51.488;0.152;2023-08-08T11:11:51;17.10;99.90
29731;DHT22;16639;51.488;0.152;2023-08-08T11:14:20;17.10;99.90
29731;DHT22;16639;51.488;0.152;2023-08-08T11:16:49;17.20;99.90
29731;DHT22;16639;51.488;0.152;2023-08-08T11:19:18;17.30;99.90
29731;DHT22;16639;51.488;0.152;2023-08-08T11:21:50;17.30;99.90
29731;DHT22;16639;51.488;0.152;2023-08-08T11:24:18;17.30;99.90
29731;DHT22;16639;51.488;0.152;2023-08-08T11:26:45;17.40;99.90
29731;DHT22;16639;51.488;0.152;2023-08-08T11:29:15;17.20;99.90
29731;DHT22;16639;51.488;0.152;2023-08-08T11:31:42;17.40;99.90
29731;DHT22;16639;51.488;0.152;2023-08-08T11:34:10;17.30;99.90
29731;DHT22;16639;51.488;0.152;2023-08-08T11:36:39;16.80;99.90
29731;DHT22;16639;51.488;0.152;2023-08-08T11:39:07;17.30;99.90
29731;DHT22;16639;51.488;0.152;2023-08-08T11:41:37;17.20;99.90
29731;DHT22;16639;51.488;0.152;2023-08-08T11:44:06;17.10;99.90
29731;DHT22;16639;51.488;0.152;2023-08-08T11:46:44;17.10;99.90
29731;DHT22;16639;51.488;0.152;2023-08-08T11:49:14;17.20;99.90
29731;DHT22;16639;51.488;0.152;2023-08-08T11:51:44;17.20;99.90
29731;DHT22;16639;51.488;0.152;2023-08-08T11:54:13;17.20;99.90
29731;DHT22;16639;51.488;0.152;2023-08-08T11:56:40;17.30;99.90
29731;DHT22;16639;51.488;0.152;2023-08-08T11:59:09;17.30;99.90
29731;DHT22;16639;51.488;0.152;2023-08-08T12:01:38;17.40;99.90
29731;DHT22;16639;51.488;0.152;2023-08-08T12:04:07;17.50;99.90
29731;DHT22;16639;51.488;0.152;2023-08-08T12:06:37;17.60;99.90
29731;DHT22;16639;51.488;0.152;2023-08-08T12:09:07;17.50;99.90
29731;DHT22;16639;51.488;0.152;2023-08-08T12:11:39;17.40;99.90
29731;DHT22;16639;51.488;0.152;2023-08-08T12:14:08;17.40;99.90
29731;DHT22;16639;51.488;0.152;2023-08-08T12:16:42;17.40;99.90
29731;DHT22;16639;51.488;0.152;2023-08-08T12:19:11;17.30;99.90
29731;DHT22;16639;51.488;0.152;2023-08-08T12:21:39;18.40;99.90
29731;DHT22;16639;51.488;0.152;2023-08-08T12:24:07;17.20;99.90
29731;DHT22;16639;51.488;0.152;2023-08-08T12:26:35;17.20;99.90
29731;DHT22;16639;51.488;0.152;2023-08-08T12:29:03;17.10;99.90
29731;DHT22;16639;51.488;0.152;2023-08-08T12:31:30;17.10;99.90
29731;DHT22;16639;51.488;0.152;2023-08-08T12:33:58;17.20;99.90
29731;DHT22;16639;51.488;0.152;2023-08-08T12:36:26;17.30;99.90
29731;DHT22;16639;51.488;0.152;2023-08-08T12:38:53;17.50;99.90
29731;DHT22;16639;51.488;0.152;2023-08-08T12:41:20;17.60;99.90
29731;DHT22;16639;51.488;0.152;2023-08-08T12:43:48;17.70;99.90
29731;DHT22;16639;51.488;0.152;2023-08-08T12:46:17;17.80;99.90
29731;DHT22;16639;51.488;0.152;2023-08-08T12:48:44;17.90;99.90
29731;DHT22;16639;51.488;0.152;2023-08-08T12:51:12;17.80;99.90
29731;DHT22;16639;51.488;0.152;2023-08-08T12:53:39;18.40;99.90
29731;DHT22;16639;51.488;0.152;2023-08-08T12:56:06;17.70;99.90
29731;DHT22;16639;51.488;0.152;2023-08-08T12:58:34;17.70;99.90
29731;DHT22;16639;51.488;0.152;2023-08-08T13:01:02;17.60;99.90
29731;DHT22;16639;51.488;0.152;2023-08-08T13:03:29;17.50;99.90
29731;DHT22;16639;51.488;0.152;2023-08-08T13:05:58;17.60;99.90
29731;DHT22;16639;51.488;0.152;2023-08-08T13:08:27;17.60;99.90
29731;DHT22;16639;51.488;0.152;2023-08-08T13:10:54;17.60;99.90
29731;DHT22;16639;51.488;0.152;2023-08-08T13:13:22;17.60;99.90
29731;DHT22;16639;51.488;0.152;2023-08-08T13:15:52;17.60;99.90
29731;DHT22;16639;51.488;0.152;2023-08-08T13:18:19;18.20;99.90
29731;DHT22;16639;51.488;0.152;2023-08-08T13:20:47;17.70;99.90
29731;DHT22;16639;51.488;0.152;2023-08-08T13:23:15;17.80;99.90
29731;DHT22;16639;51.488;0.152;2023-08-08T13:25:42;17.80;99.90
29731;DHT22;16639;51.488;0.152;2023-08-08T13:28:09;17.80;99.90
29731;DHT22;16639;51.488;0.152;2023-08-08T13:30:38;17.80;99.90
29731;DHT22;16639;51.488;0.152;2023-08-08T13:33:06;17.70;99.90
29731;DHT22;16639;51.488;0.152;2023-08-08T13:35:33;17.70;99.90
29731;DHT22;16639;51.488;0.152;2023-08-08T13:38:01;17.40;99.90
29731;DHT22;16639;51.488;0.152;2023-08-08T13:40:29;17.70;99.90
29731;DHT22;16639;51.488;0.152;2023-08-08T13:42:57;17.60;99.90
29731;DHT22;16639;51.488;0.152;2023-08-08T13:45:25;17.60;99.90
29731;DHT22;16639;51.488;0.152;2023-08-08T13:47:52;17.60;99.90
29731;DHT22;16639;51.488;0.152;2023-08-08T13:50:20;17.60;99.90
29731;DHT22;16639;51.488;0.152;2023-08-08T13:52:47;17.60;99.90
29731;DHT22;16639;51.488;0.152;2023-08-08T13:55:15;17.70;99.90
29731;DHT22;16639;51.488;0.152;2023-08-08T13:57:42;17.60;99.90
29731;DHT22;16639;51.488;0.152;2023-08-08T14:00:11;17.70;99.90
29731;DHT22;16639;51.488;0.152;2023-08-08T14:02:39;17.70;99.90
29731;DHT22;16639;51.488;0.152;2023-08-08T14:05:08;17.70;99.90
29731;DHT22;16639;51.488;0.152;2023-08-08T14:07:36;17.70;99.90
29731;DHT22;16639;51.488;0.152;2023-08-08T14:10:03;17.70;99.90
29731;DHT22;16639;51.488;0.152;2023-08-08T14:12:31;17.70;99.90
29731;DHT22;16639;51.488;0.152;2023-08-08T14:14:59;17.70;99.90
29731;DHT22;16639;51.488;0.152;2023-08-08T14:17:26;17.60;99.90
29731;DHT22;16639;51.488;0.152;2023-08-08T14:19:54;17.60;99.90
29731;DHT22;16639;51.488;0.152;2023-08-08T14:22:21;17.60;99.90
29731;DHT22;16639;51.488;0.152;2023-08-08T14:24:49;17.60;99.90
29731;DHT22;16639;51.488;0.152;2023-08-08T14:27:17;17.60;99.90
29731;DHT22;16639;51.488;0.152;2023-08-08T14:29:44;17.60;99.90
29731;DHT22;16639;51.488;0.152;2023-08-08T14:32:12;17.60;99.90
29731;DHT22;16639;51.488;0.152;2023-08-08T14:34:39;17.50;99.90
29731;DHT22;16639;51.488;0.152;2023-08-08T14:37:07;16.80;99.90
29731;DHT22;16639;51.488;0.152;2023-08-08T14:39:35;17.00;99.90
29731;DHT22;16639;51.488;0.152;2023-08-08T14:42:05;17.50;99.90
29731;DHT22;16639;51.488;0.152;2023-08-08T14:44:32;17.00;99.90
29731;DHT22;16639;51.488;0.152;2023-08-08T14:47:00;18.40;99.90
29731;DHT22;16639;51.488;0.152;2023-08-08T14:49:28;17.70;99.90
29731;DHT22;16639;51.488;0.152;2023-08-08T14:51:55;17.70;99.90
29731;DHT22;16639;51.488;0.152;2023-08-08T14:54:23;17.70;99.90
29731;DHT22;16639;51.488;0.152;2023-08-08T14:56:51;17.80;99.90
29731;DHT22;16639;51.488;0.152;2023-08-08T14:59:18;17.80;99.90
29731;DHT22;16639;51.488;0.152;2023-08-08T15:01:46;17.80;99.90
29731;DHT22;16639;51.488;0.152;2023-08-08T15:04:14;17.80;99.90
29731;DHT22;16639;51.488;0.152;2023-08-08T15:06:41;17.90;99.90
29731;DHT22;16639;51.488;0.152;2023-08-08T15:09:08;17.80;99.90
29731;DHT22;16639;51.488;0.152;2023-08-08T15:11:37;17.80;99.90
29731;DHT22;16639;51.488;0.152;2023-08-08T15:14:05;17.70;99.90
29731;DHT22;16639;51.488;0.152;2023-08-08T15:16:32;17.70;99.90
29731;DHT22;16639;51.488;0.152;2023-08-08T15:19:01;17.70;99.90
29731;DHT22;16639;51.488;0.152;2023-08-08T15:21:28;17.70;99.90
29731;DHT22;16639;51.488;0.152;2023-08-08T15:23:56;17.70;99.90
29731;DHT22;16639;51.488;0.152;2023-08-08T15:26:23;17.70;99.90
29731;DHT22;16639;51.488;0.152;2023-08-08T15:28:51;17.70;99.90
29731;DHT22;16639;51.488;0.152;2023-08-08T15:31:18;17.70;99.90
29731;DHT22;16639;51.488;0.152;2023-08-08T15:33:46;17.70;99.90
29731;DHT22;16639;51.488;0.152;2023-08-08T15:36:13;17.60;99.90
29731;DHT22;16639;51.488;0.152;2023-08-08T15:38:41;17.70;99.90
29731;DHT22;16639;51.488;0.152;2023-08-08T15:41:09;17.70;99.90
29731;DHT22;16639;51.488;0.152;2023-08-08T15:43:36;17.70;99.90